Skip to main content.
 TIME   TEMPERATURE   WINDSPEED   DIRECTION   HUMIDITY   BAROMETER   RAINFALL 
1:50 23.3°C (73.9°F) 20.4 kmh (12.7 mph) NW 59% 1011.0hPa (29.85 inHg) 0.0mm (0.00 in.)
12:50 22.8°C (73.0 °F) 18.5 kmh (11.5 mph) NW 66% 1011.0hPa (29.85 inHg) 0.0mm (0.00 in.)
11:50 22.6°C (72.7 °F) 22.2 kmh (13.8 mph) WNW 67% 1012.0hPa (29.88 inHg) 0.0mm (0.00 in.)
10:50 21.8°C (71.2 °F) 18.5 kmh (11.5 mph) NW 71% 1012.0hPa (29.88 inHg) 0.0mm (0.00 in.)
9:50 18.9°C (66.0 °F) 7.4 kmh (4.6 mph) WNW 74% 1011.0hPa (29.85 inHg) 0.0mm (0.00 in.)
8:50 18.2°C (64.8 °F) 13.0 kmh (8.1 mph) WNW 74% 1011.0hPa (29.85 inHg) 0.0mm (0.00 in.)
7:50 16.5°C (61.7 °F) 11.1 kmh (6.9 mph) WNW 73% 1012.0hPa (29.88 inHg) 0.0mm (0.00 in.)
6:50 16.0°C (60.8 °F) 13.0 kmh (8.1 mph) WNW 72% 1012.0hPa (29.88 inHg) 0.0mm (0.00 in.)
5:50 16.0°C (60.8 °F) 0.0 kmh (0.0 mph) WNW 72% 1012.0hPa (29.88 inHg) 0.0mm (0.00 in.)
4:50 16.2°C (61.2 °F) 0.0 kmh (0.0 mph) WNW 73% 1012.0hPa (29.88 inHg) 0.0mm (0.00 in.)
3:50 16.1°C (61.0 °F) 0.0 kmh (0.0 mph) WNW 74% 1012.0hPa (29.88 inHg) 0.0mm (0.00 in.)
2:50 16.3°C (61.3 °F) 0.0 kmh (0.0 mph) WNW 75% 1012.0hPa (29.88 inHg) 0.0mm (0.00 in.)
1:50 16.3°C (61.3 °F) 7.4 kmh (4.6 mph) NW 76% 1012.0hPa (29.88 inHg) 0.0mm (0.00 in.)
12:50 16.4°C (61.5 °F) 7.4 kmh (4.6 mph) WNW 76% 1013.0hPa (29.91 inHg) 0.0mm (0.00 in.)
11:50 16.5°C (61.7 °F) 13.0 kmh (8.1 mph) WNW 75% 1013.0hPa (29.91 inHg) 0.0mm (0.00 in.)
10:50 16.6°C (61.9 °F) 14.8 kmh (9.2 mph) WNW 74% 1013.0hPa (29.91 inHg) 0.0mm (0.00 in.)
9:50 18.1°C (64.6 °F) 18.5 kmh (11.5 mph) WNW 73% 1013.0hPa (29.91 inHg) 0.0mm (0.00 in.)
8:50 18.3°C (64.9 °F) 20.4 kmh (12.7 mph) WNW 71% 1012.0hPa (29.88 inHg) 0.0mm (0.00 in.)
7:50 18.6°C (65.5 °F) 11.1 kmh (6.9 mph) WNW 70% 1012.0hPa (29.88 inHg) 0.0mm (0.00 in.)
6:50 19.1°C (66.4 °F) 14.8 kmh (9.2 mph) NW 69% 1012.0hPa (29.88 inHg) 0.0mm (0.00 in.)
5:50 19.5°C (67.1 °F) 14.8 kmh (9.2 mph) WNW 68% 1012.0hPa (29.88 inHg) 0.0mm (0.00 in.)
4:50 19.7°C (67.5 °F) 22.2 kmh (13.8 mph) WNW 68% 1012.0hPa (29.88 inHg) 0.0mm (0.00 in.)
3:50 19.9°C (67.8 °F) 16.7 kmh (10.4 mph) WNW 67% 1013.0hPa (29.91 inHg) 0.0mm (0.00 in.)
2:50 19.8°C (67.6 °F) 18.5 kmh (11.5 mph) WNW 68% 1013.0hPa (29.91 inHg) 0.0mm (0.00 in.)